Time;durP1;ratioP1;P1;durP2;ratioP2;P2;SDS_P1;SDS_P2;PMS_P1;PMS_P2;Temp;Humidity;BMP_temperature;BMP_pressure;BME280_temperature;BME280_humidity;BME280_pressure;Samples;Min_cycle;Max_cycle;Signal;HPM_P1;HPM_P2
2022/10/05 00:01:26;;;;;;;8.15;6.95;;;15.40;99.90;;;;;;6181990;23;20001;-70
2022/10/05 00:04:05;;;;;;;8.40;6.40;;;15.50;99.90;;;;;;6180086;23;20001;-71
2022/10/05 00:06:30;;;;;;;8.48;7.00;;;15.40;99.90;;;;;;6180436;23;20095;-71
2022/10/05 00:08:56;;;;;;;8.35;7.07;;;15.40;99.90;;;;;;6180137;23;20486;-71
2022/10/05 00:11:21;;;;;;;8.90;8.00;;;15.40;99.90;;;;;;6180181;23;20016;-70
2022/10/05 00:13:47;;;;;;;8.75;6.80;;;15.30;99.90;;;;;;6180436;23;20005;-71
2022/10/05 00:16:17;;;;;;;12.80;7.05;;;15.30;99.90;;;;;;6180191;23;20007;-71
2022/10/05 00:18:46;;;;;;;9.68;7.50;;;16.10;99.90;;;;;;6182095;23;20132;-70
2022/10/05 00:21:24;;;;;;;8.68;7.75;;;15.30;99.90;;;;;;6182685;23;20009;-70
2022/10/05 00:23:51;;;;;;;9.80;6.47;;;15.30;99.90;;;;;;6182920;23;20001;-71
2022/10/05 00:26:22;;;;;;;9.75;7.88;;;15.20;99.90;;;;;;6182712;23;20466;-70
2022/10/05 00:28:48;;;;;;;8.75;6.78;;;15.30;99.90;;;;;;6181474;23;20005;-71
2022/10/05 00:31:29;;;;;;;8.32;7.25;;;15.40;99.90;;;;;;6182507;23;20060;-71
2022/10/05 00:33:55;;;;;;;10.50;7.15;;;15.20;99.90;;;;;;6182330;23;20084;-71
2022/10/05 00:36:21;;;;;;;10.15;7.57;;;15.30;99.90;;;;;;6182734;23;20011;-71
2022/10/05 00:38:46;;;;;;;10.60;8.10;;;15.40;99.90;;;;;;6182695;23;20028;-70
2022/10/05 00:41:22;;;;;;;11.27;6.80;;;15.20;99.90;;;;;;6182365;23;19997;-71
2022/10/05 00:44:10;;;;;;;12.13;7.55;;;15.20;99.90;;;;;;6182357;23;20090;-71
2022/10/05 00:46:51;;;;;;;8.05;6.93;;;15.50;99.90;;;;;;6182987;23;20023;-71
2022/10/05 00:49:25;;;;;;;9.40;7.75;;;15.40;99.90;;;;;;6182473;23;20025;-71
2022/10/05 00:52:20;;;;;;;9.85;6.95;;;15.30;99.90;;;;;;6181998;23;20443;-71
2022/10/05 00:55:14;;;;;;;10.60;7.18;;;15.30;99.90;;;;;;6172249;23;20435;-71
2022/10/05 00:57:51;;;;;;;9.57;7.88;;;15.30;99.90;;;;;;6182829;23;19997;-70
2022/10/05 01:00:21;;;;;;;9.90;7.07;;;15.30;99.90;;;;;;6182388;23;20001;-71
2022/10/05 01:02:58;;;;;;;9.40;7.65;;;15.10;99.90;;;;;;6181199;23;20055;-71
2022/10/05 01:05:42;;;;;;;10.45;7.90;;;15.30;99.90;;;;;;6182289;23;20015;-71
2022/10/05 01:08:39;;;;;;;11.05;8.13;;;15.30;99.90;;;;;;6182285;23;20001;-70
2022/10/05 01:11:26;;;;;;;8.15;6.72;;;15.30;99.90;;;;;;6182358;23;20005;-71
2022/10/05 01:14:23;;;;;;;11.90;7.47;;;15.30;99.90;;;;;;6181509;23;20071;-71
2022/10/05 01:17:04;;;;;;;10.30;7.72;;;15.30;99.90;;;;;;6182589;23;20338;-71
2022/10/05 01:19:42;;;;;;;9.25;8.27;;;15.20;99.90;;;;;;6180541;23;20358;-70
2022/10/05 01:22:29;;;;;;;13.98;8.70;;;15.20;99.90;;;;;;6182278;23;20001;-71
2022/10/05 01:25:28;;;;;;;11.40;7.72;;;15.30;99.90;;;;;;6182229;23;20104;-71
2022/10/05 01:28:18;;;;;;;9.43;7.63;;;15.20;99.90;;;;;;6181435;23;20422;-71
2022/10/05 01:30:57;;;;;;;8.45;7.38;;;15.40;99.90;;;;;;6182397;23;20016;-71
2022/10/05 01:34:18;;;;;;;11.05;8.30;;;15.20;99.90;;;;;;6180338;23;20013;-71
2022/10/05 01:37:02;;;;;;;10.65;7.95;;;15.30;99.90;;;;;;6075549;23;20042;-71
2022/10/05 01:39:30;;;;;;;;;;;15.20;99.90;;;;;;6091540;23;20007;-71
2022/10/05 01:42:29;;;;;;;8.93;7.53;;;15.10;99.90;;;;;;6090208;23;20366;-71
2022/10/05 01:45:08;;;;;;;9.48;7.85;;;15.10;99.90;;;;;;6090720;23;20461;-71
2022/10/05 01:47:44;;;;;;;10.93;7.95;;;15.10;99.90;;;;;;6091058;23;20030;-71
2022/10/05 01:50:27;;;;;;;9.32;8.18;;;15.20;99.90;;;;;;6090836;23;20006;-71
2022/10/05 01:53:18;;;;;;;10.55;7.18;;;15.20;99.90;;;;;;6090667;23;20393;-71
2022/10/05 01:55:47;;;;;;;10.32;9.23;;;15.20;99.90;;;;;;6091004;23;20017;-71
2022/10/05 01:58:34;;;;;;;13.00;9.68;;;15.20;99.90;;;;;;6090200;23;20010;-71
2022/10/05 02:01:19;;;;;;;11.73;8.20;;;15.20;99.90;;;;;;6090787;23;20418;-71
2022/10/05 02:03:52;;;;;;;11.02;8.75;;;15.10;99.90;;;;;;6090682;23;20077;-70
2022/10/05 02:06:25;;;;;;;12.43;9.15;;;15.10;99.90;;;;;;6090867;23;20029;-71
2022/10/05 02:08:55;;;;;;;13.55;9.32;;;15.00;99.90;;;;;;6090922;23;20030;-71
2022/10/05 02:11:21;;;;;;;11.00;9.65;;;15.10;99.90;;;;;;6090236;23;20010;-71
2022/10/05 02:13:57;;;;;;;12.20;9.32;;;15.00;99.90;;;;;;6160687;23;20096;-70
2022/10/05 02:16:35;;;;;;;10.88;9.63;;;15.00;99.90;;;;;;6182070;23;20007;-70
2022/10/05 02:19:23;;;;;;;13.73;10.30;;;15.00;99.90;;;;;;6181702;23;20006;-71
2022/10/05 02:22:04;;;;;;;12.32;10.05;;;14.90;99.90;;;;;;6180513;23;20055;-71
2022/10/05 02:24:36;;;;;;;11.35;9.75;;;14.90;99.90;;;;;;6182068;23;20009;-71
2022/10/05 02:27:03;;;;;;;12.13;8.93;;;14.80;99.90;;;;;;6179733;23;20016;-70
2022/10/05 02:29:32;;;;;;;13.27;9.88;;;14.80;99.90;;;;;;6181856;23;20009;-71
2022/10/05 02:32:11;;;;;;;12.75;9.50;;;15.20;99.90;;;;;;6183272;23;20001;-71
2022/10/05 02:34:39;;;;;;;12.77;9.77;;;14.90;99.90;;;;;;6183813;23;20047;-70
2022/10/05 02:37:27;;;;;;;11.30;9.55;;;14.70;99.90;;;;;;6183965;23;19997;-71
2022/10/05 02:40:16;;;;;;;15.13;10.45;;;14.80;99.90;;;;;;6183243;23;20059;-71
2022/10/05 02:43:15;;;;;;;14.38;10.20;;;14.80;99.90;;;;;;6183936;23;20031;-71
2022/10/05 02:46:10;;;;;;;10.77;9.45;;;14.80;99.90;;;;;;6178077;23;20077;-71
2022/10/05 02:48:54;;;;;;;13.82;11.00;;;14.70;99.90;;;;;;6184005;23;20005;-71
2022/10/05 02:51:26;;;;;;;11.82;10.63;;;14.70;99.90;;;;;;6183828;23;20021;-71
2022/10/05 02:54:18;;;;;;;11.93;10.52;;;14.70;99.90;;;;;;6182939;23;20334;-71
2022/10/05 02:56:58;;;;;;;14.25;10.70;;;14.60;99.90;;;;;;6183704;23;20025;-71
2022/10/05 02:59:42;;;;;;;10.80;8.98;;;14.60;99.90;;;;;;6183569;23;19997;-71
2022/10/05 03:02:25;;;;;;;14.05;9.45;;;14.60;99.90;;;;;;6183931;23;20009;-71
2022/10/05 03:05:18;;;;;;;12.02;9.77;;;14.70;99.90;;;;;;6183720;23;20411;-71
2022/10/05 03:07:57;;;;;;;12.17;10.33;;;14.70;99.90;;;;;;6183667;23;20004;-71
2022/10/05 03:10:35;;;;;;;15.45;11.93;;;14.70;99.90;;;;;;6183230;23;20330;-71
2022/10/05 03:13:41;;;;;;;12.73;10.35;;;14.70;99.90;;;;;;6183290;23;20001;-71
2022/10/05 03:16:39;;;;;;;12.73;10.90;;;14.70;99.90;;;;;;6063598;23;20031;-71
2022/10/05 03:19:26;;;;;;;11.40;10.20;;;14.70;99.90;;;;;;6063304;23;20353;-71
2022/10/05 03:22:05;;;;;;;15.65;10.98;;;14.80;99.90;;;;;;6063616;23;20010;-71
2022/10/05 03:25:03;;;;;;;15.15;10.48;;;14.50;99.90;;;;;;6062867;23;20011;-71
2022/10/05 03:28:04;;;;;;;14.73;10.23;;;14.80;99.90;;;;;;6063566;23;20006;-71
2022/10/05 03:30:59;;;;;;;12.80;10.68;;;14.70;99.90;;;;;;6044609;23;20046;-71
2022/10/05 03:33:29;;;;;;;13.68;11.13;;;14.70;99.90;;;;;;6062421;23;20019;-71
2022/10/05 03:36:16;;;;;;;14.25;11.18;;;14.80;99.90;;;;;;6062664;23;19999;-71
2022/10/05 03:38:47;;;;;;;19.48;12.00;;;14.80;99.90;;;;;;6062325;23;20094;-71
2022/10/05 03:41:17;;;;;;;12.98;11.02;;;14.80;99.90;;;;;;6038571;23;20014;-70
2022/10/05 03:44:03;;;;;;;14.05;11.52;;;14.70;99.90;;;;;;6062802;23;20035;-70
2022/10/05 03:46:34;;;;;;;15.60;11.13;;;14.90;99.90;;;;;;6062478;23;20481;-71
2022/10/05 03:49:13;;;;;;;12.48;11.07;;;14.80;99.90;;;;;;6066960;23;20081;-70
2022/10/05 03:51:50;;;;;;;16.10;11.93;;;14.80;99.90;;;;;;6182978;23;20039;-71
2022/10/05 03:54:28;;;;;;;12.73;10.68;;;14.80;99.90;;;;;;6182664;23;20016;-70
2022/10/05 03:57:00;;;;;;;16.42;11.55;;;14.80;99.90;;;;;;6182862;23;20373;-71
2022/10/05 03:59:28;;;;;;;13.07;11.13;;;14.80;99.90;;;;;;6183176;23;20338;-71
2022/10/05 04:01:59;;;;;;;13.32;10.23;;;14.80;99.90;;;;;;6182965;23;20008;-71
2022/10/05 04:04:32;;;;;;;14.32;11.98;;;14.90;99.90;;;;;;6181116;23;20342;-71
2022/10/05 04:07:00;;;;;;;13.90;12.45;;;14.90;99.90;;;;;;6182317;23;20028;-71
2022/10/05 04:09:43;;;;;;;12.43;11.15;;;14.90;99.90;;;;;;6183015;23;20008;-71
2022/10/05 04:12:31;;;;;;;14.30;10.40;;;14.90;99.90;;;;;;6183154;23;20001;-71
2022/10/05 04:15:03;;;;;;;12.60;10.13;;;14.80;99.90;;;;;;6182772;23;20055;-71
2022/10/05 04:17:41;;;;;;;13.88;10.20;;;14.90;99.90;;;;;;6183154;23;20005;-71
2022/10/05 04:20:17;;;;;;;15.35;10.55;;;14.80;99.90;;;;;;6183011;23;20077;-71
2022/10/05 04:22:51;;;;;;;14.13;10.40;;;14.90;99.90;;;;;;6182159;23;20008;-71
2022/10/05 04:25:27;;;;;;;12.57;10.80;;;14.90;99.90;;;;;;6182787;23;20012;-70
2022/10/05 04:28:01;;;;;;;16.25;10.40;;;15.00;99.90;;;;;;6182750;23;20011;-71
2022/10/05 04:30:31;;;;;;;12.70;10.40;;;14.90;99.90;;;;;;6182927;23;20005;-71
2022/10/05 04:32:59;;;;;;;13.27;10.30;;;14.90;99.90;;;;;;6182458;23;20017;-71
2022/10/05 04:35:36;;;;;;;14.50;11.27;;;14.90;99.90;;;;;;6182085;23;20005;-71
2022/10/05 04:38:27;;;;;;;13.57;10.13;;;15.60;99.90;;;;;;6182462;23;20005;-71
2022/10/05 04:41:15;;;;;;;13.00;10.40;;;14.80;99.90;;;;;;6181132;23;20092;-71
2022/10/05 04:44:03;;;;;;;13.63;9.38;;;14.80;99.90;;;;;;6182691;23;20499;-71
2022/10/05 04:46:44;;;;;;;14.50;9.82;;;14.90;99.90;;;;;;6182903;23;20001;-71
2022/10/05 04:49:28;;;;;;;11.73;9.93;;;14.90;99.90;;;;;;6182641;23;20005;-71
2022/10/05 04:52:21;;;;;;;11.23;9.27;;;14.90;99.90;;;;;;6181911;23;20000;-71
2022/10/05 04:55:21;;;;;;;11.73;9.43;;;14.80;99.90;;;;;;6182029;23;20011;-71
2022/10/05 04:58:25;;;;;;;11.60;9.77;;;14.90;99.90;;;;;;6180887;23;20012;-70
2022/10/05 05:01:01;;;;;;;14.90;10.45;;;14.90;99.90;;;;;;6182684;23;20078;-71
2022/10/05 05:03:32;;;;;;;12.90;10.40;;;14.90;99.90;;;;;;6182335;23;20048;-71
2022/10/05 05:06:22;;;;;;;12.63;9.68;;;14.80;99.90;;;;;;6181802;23;20080;-71
2022/10/05 05:09:06;;;;;;;11.63;9.70;;;14.90;99.90;;;;;;6182363;23;20009;-71
2022/10/05 05:11:32;;;;;;;;;;;14.90;99.90;;;;;;6183131;23;20008;-71
2022/10/05 05:14:32;;;;;;;12.55;9.25;;;14.90;99.90;;;;;;6181872;23;19904;-71
2022/10/05 05:17:12;;;;;;;10.95;8.70;;;14.80;99.90;;;;;;6180686;23;19997;-71
2022/10/05 05:19:56;;;;;;;14.70;9.40;;;14.80;99.90;;;;;;6181969;23;20007;-71
2022/10/05 05:22:37;;;;;;;13.05;8.93;;;14.80;99.90;;;;;;6182284;23;20044;-71
2022/10/05 05:25:05;;;;;;;11.23;9.43;;;14.80;99.90;;;;;;6182424;23;20005;-71
2022/10/05 05:27:46;;;;;;;11.27;10.13;;;14.80;99.90;;;;;;6182013;23;20015;-71
2022/10/05 05:30:23;;;;;;;11.88;9.90;;;14.90;99.90;;;;;;6182240;23;20005;-71
2022/10/05 05:33:03;;;;;;;11.95;9.23;;;14.80;99.90;;;;;;6181979;23;20020;-71
2022/10/05 05:35:41;;;;;;;10.77;8.30;;;14.90;99.90;;;;;;6181573;23;20028;-71
2022/10/05 05:38:06;;;;;;;17.38;9.90;;;14.80;99.90;;;;;;6182102;23;20001;-71
2022/10/05 05:40:34;;;;;;;13.50;8.60;;;14.80;99.90;;;;;;6182140;23;20063;-72
2022/10/05 05:43:16;;;;;;;12.95;9.48;;;14.80;99.90;;;;;;6181918;23;20423;-71
2022/10/05 05:46:05;;;;;;;12.27;9.95;;;14.80;99.90;;;;;;6182186;23;20036;-71
2022/10/05 05:48:42;;;;;;;12.55;8.82;;;14.80;99.90;;;;;;6181727;23;20017;-72
2022/10/05 05:51:21;;;;;;;9.68;8.70;;;14.90;99.90;;;;;;6182162;23;20012;-71
2022/10/05 05:54:05;;;;;;;12.15;9.70;;;14.80;99.90;;;;;;6182290;23;20060;-71
2022/10/05 05:56:33;;;;;;;;;;;14.80;99.90;;;;;;6182737;23;20009;-71
2022/10/05 05:59:09;;;;;;;11.40;10.20;;;14.70;99.90;;;;;;6181990;23;19900;-72
2022/10/05 06:01:39;;;;;;;12.80;9.93;;;14.80;99.90;;;;;;6182223;23;20001;-71
2022/10/05 06:04:26;;;;;;;10.52;8.93;;;14.80;99.90;;;;;;6181490;23;20005;-71
2022/10/05 06:06:54;;;;;;;11.13;9.25;;;14.80;99.90;;;;;;6181914;23;20016;-71
2022/10/05 06:09:31;;;;;;;10.15;9.10;;;14.80;99.90;;;;;;6182174;23;20005;-71
2022/10/05 06:12:11;;;;;;;10.38;8.60;;;14.70;99.90;;;;;;6181978;23;20304;-71
2022/10/05 06:14:43;;;;;;;9.13;7.88;;;14.80;99.90;;;;;;6182033;23;20051;-71
2022/10/05 06:17:21;;;;;;;10.63;8.27;;;14.80;99.90;;;;;;6181512;23;20005;-72
2022/10/05 06:19:49;;;;;;;9.43;8.45;;;14.80;99.90;;;;;;6182026;23;20001;-71
2022/10/05 06:22:23;;;;;;;10.43;7.22;;;14.80;99.90;;;;;;6180007;23;20008;-71
2022/10/05 06:25:12;;;;;;;10.75;8.45;;;14.80;99.90;;;;;;6181812;23;20005;-71
2022/10/05 06:28:22;;;;;;;10.45;8.48;;;14.90;99.90;;;;;;6181825;23;20005;-71
2022/10/05 06:30:54;;;;;;;9.98;7.45;;;14.90;99.90;;;;;;6175924;23;20009;-73
2022/10/05 06:33:44;;;;;;;8.70;7.10;;;14.90;99.90;;;;;;6180919;23;20028;-73
2022/10/05 06:36:41;;;;;;;9.15;7.03;;;14.90;99.90;;;;;;6182088;23;20028;-73
2022/10/05 06:39:24;;;;;;;8.25;6.47;;;15.00;99.90;;;;;;6181772;23;20001;-73
2022/10/05 06:42:26;;;;;;;9.05;6.15;;;14.90;99.90;;;;;;6181818;23;20001;-73
2022/10/05 06:44:52;;;;;;;8.20;6.35;;;14.90;99.90;;;;;;6181983;23;20007;-73
2022/10/05 06:47:45;;;;;;;12.45;6.38;;;14.90;99.90;;;;;;6181353;23;20493;-73
2022/10/05 06:50:29;;;;;;;7.57;6.75;;;15.10;99.90;;;;;;6181675;23;20075;-72
2022/10/05 06:53:14;;;;;;;;;;;15.10;99.90;;;;;;6182403;23;20064;-70
2022/10/05 06:55:47;;;;;;;10.23;6.20;;;15.00;99.90;;;;;;6181819;23;19916;-71
2022/10/05 06:58:32;;;;;;;6.35;5.75;;;15.30;99.90;;;;;;6181383;23;20087;-72
2022/10/05 07:01:11;;;;;;;7.10;6.13;;;14.90;99.90;;;;;;6179991;23;20056;-72
2022/10/05 07:04:01;;;;;;;6.85;6.13;;;15.00;99.90;;;;;;6181611;23;20542;-72
2022/10/05 07:06:42;;;;;;;9.73;6.22;;;15.00;99.90;;;;;;6178643;23;20052;-72
2022/10/05 07:09:33;;;;;;;8.13;5.95;;;15.00;99.90;;;;;;6181610;23;19993;-71
2022/10/05 07:12:21;;;;;;;6.85;6.10;;;15.10;99.90;;;;;;6181029;23;20001;-72
2022/10/05 07:14:57;;;;;;;7.85;6.45;;;15.20;99.90;;;;;;6179761;23;20005;-71
2022/10/05 07:17:48;;;;;;;9.52;6.40;;;15.20;99.90;;;;;;6180554;23;20032;-72
2022/10/05 07:20:25;;;;;;;7.07;5.80;;;15.30;99.90;;;;;;6183206;23;20059;-72
2022/10/05 07:23:33;;;;;;;8.75;6.38;;;17.40;99.90;;;;;;6181762;23;20426;-72
2022/10/05 07:26:35;;;;;;;9.65;6.45;;;15.30;99.90;;;;;;6182316;23;20005;-72
2022/10/05 07:29:13;;;;;;;11.48;7.10;;;15.30;99.90;;;;;;6181583;23;20427;-72
2022/10/05 07:31:57;;;;;;;9.32;6.47;;;15.50;99.90;;;;;;6183136;23;20001;-72
2022/10/05 07:34:44;;;;;;;7.32;5.72;;;15.30;99.90;;;;;;6181808;23;20023;-71
2022/10/05 07:40:25;;;;;;;8.10;6.43;;;15.40;99.90;;;;;;6181665;23;20016;-72
2022/10/05 07:43:30;;;;;;;7.70;6.30;;;15.50;99.90;;;;;;6183084;23;20407;-71
2022/10/05 07:46:32;;;;;;;8.98;6.90;;;15.50;99.90;;;;;;6180436;23;20080;-72
2022/10/05 07:49:11;;;;;;;6.57;5.57;;;15.60;99.90;;;;;;6182623;23;20005;-72
2022/10/05 07:51:59;;;;;;;6.53;5.47;;;15.50;99.90;;;;;;6182004;23;20435;-72
2022/10/05 07:54:48;;;;;;;7.20;6.38;;;15.60;99.90;;;;;;6181583;23;20005;-72
2022/10/05 07:57:37;;;;;;;9.10;5.75;;;15.60;99.90;;;;;;6182507;23;20055;-72
2022/10/05 08:00:09;;;;;;;7.30;6.00;;;15.60;99.90;;;;;;6179579;23;20426;-72
2022/10/05 08:03:04;;;;;;;6.93;6.22;;;15.70;99.90;;;;;;6182271;23;20007;-73
2022/10/05 08:05:32;;;;;;;6.80;5.38;;;15.60;99.90;;;;;;6167127;23;20383;-72
2022/10/05 08:08:12;;;;;;;6.55;5.57;;;15.60;99.90;;;;;;6182875;23;20055;-72
2022/10/05 08:10:49;;;;;;;5.63;5.13;;;17.30;99.90;;;;;;6182341;23;20423;-72
2022/10/05 08:13:39;;;;;;;5.32;4.63;;;15.70;99.90;;;;;;6179283;23;20005;-72
2022/10/05 08:16:13;;;;;;;6.95;5.25;;;15.70;99.90;;;;;;6180844;23;20017;-72
2022/10/05 08:18:43;;;;;;;4.60;3.63;;;15.70;99.90;;;;;;6182054;23;20001;-73
2022/10/05 08:21:10;;;;;;;3.88;3.47;;;15.80;99.90;;;;;;6182315;23;19997;-73
2022/10/05 08:23:58;;;;;;;4.78;3.78;;;15.90;99.90;;;;;;6179318;23;20001;-72
2022/10/05 08:26:39;;;;;;;6.57;3.65;;;15.90;99.90;;;;;;6181011;23;20438;-72
2022/10/05 08:29:33;;;;;;;4.75;3.30;;;16.00;99.90;;;;;;6181665;23;20300;-73
2022/10/05 08:32:10;;;;;;;6.00;4.03;;;16.10;99.90;;;;;;6181908;23;20123;-72
2022/10/05 08:34:46;;;;;;;4.10;3.47;;;16.70;99.90;;;;;;6178626;23;20005;-72
2022/10/05 08:37:22;;;;;;;4.15;3.75;;;18.50;99.90;;;;;;6180683;23;20678;-73
2022/10/05 08:40:25;;;;;;;5.93;3.78;;;16.30;99.90;;;;;;6181328;23;20087;-72
2022/10/05 08:43:27;;;;;;;5.00;3.20;;;16.40;99.90;;;;;;6181781;23;20008;-72
2022/10/05 08:46:11;;;;;;;4.88;3.42;;;16.60;99.90;;;;;;6179365;23;20013;-72
2022/10/05 08:49:13;;;;;;;6.60;3.65;;;16.50;99.90;;;;;;6182317;23;20036;-72
2022/10/05 08:51:55;;;;;;;5.68;3.38;;;16.60;99.90;;;;;;6182330;23;20005;-73
2022/10/05 08:54:33;;;;;;;5.68;3.65;;;16.70;99.90;;;;;;6180715;23;20415;-72
2022/10/05 08:57:45;;;;;;;4.30;3.55;;;16.70;99.90;;;;;;6179951;23;20001;-73
2022/10/05 09:00:21;;;;;;;4.88;3.70;;;16.80;99.90;;;;;;6182086;23;20001;-72
2022/10/05 09:03:21;;;;;;;5.32;4.45;;;16.80;99.90;;;;;;6182134;23;19997;-72
2022/10/05 09:06:20;;;;;;;5.25;3.85;;;17.00;99.90;;;;;;6179978;23;20001;-72
2022/10/05 09:09:13;;;;;;;4.72;4.00;;;16.90;99.90;;;;;;6181789;23;20001;-72
2022/10/05 09:11:44;;;;;;;6.43;4.15;;;17.10;99.90;;;;;;6181641;23;20009;-72
2022/10/05 09:14:45;;;;;;;7.32;4.65;;;17.10;99.90;;;;;;6180774;23;20083;-72
2022/10/05 09:17:42;;;;;;;7.03;3.63;;;17.30;99.90;;;;;;6181190;23;20001;-72
2022/10/05 09:20:19;;;;;;;8.18;4.38;;;17.50;99.90;;;;;;6182175;23;20008;-72
2022/10/05 09:22:53;;;;;;;7.13;4.28;;;17.40;99.90;;;;;;6181839;23;20327;-72
2022/10/05 09:25:29;;;;;;;6.80;4.47;;;17.50;99.90;;;;;;6179878;23;20002;-73
2022/10/05 09:28:16;;;;;;;4.75;3.70;;;17.50;99.90;;;;;;6180634;23;20417;-72
2022/10/05 09:30:47;;;;;;;4.72;3.83;;;17.70;99.90;;;;;;6181056;23;20008;-73
2022/10/05 09:33:25;;;;;;;7.47;3.85;;;17.80;99.90;;;;;;6180889;23;20072;-72
2022/10/05 09:36:39;;;;;;;6.03;3.95;;;17.80;99.90;;;;;;6180569;23;20048;-73
2022/10/05 09:39:23;;;;;;;4.43;3.47;;;17.90;99.90;;;;;;6060096;23;20038;-71
2022/10/05 09:42:25;;;;;;;5.35;3.70;;;18.00;99.90;;;;;;6060481;23;19999;-72
2022/10/05 09:45:27;;;;;;;4.10;3.60;;;18.20;99.90;;;;;;6059396;23;20014;-72
2022/10/05 09:48:17;;;;;;;4.55;3.22;;;18.10;99.90;;;;;;6059094;23;20021;-71
2022/10/05 09:50:56;;;;;;;5.20;4.07;;;18.20;99.90;;;;;;6060021;23;20475;-71
2022/10/05 09:54:03;;;;;;;4.72;3.10;;;18.20;99.90;;;;;;6061464;23;20010;-72
2022/10/05 09:57:02;;;;;;;5.72;3.47;;;18.30;99.90;;;;;;6048661;23;20015;-71
2022/10/05 09:59:52;;;;;;;5.70;3.00;;;18.30;99.90;;;;;;6060134;23;20014;-71
2022/10/05 10:03:04;;;;;;;4.35;3.35;;;18.30;99.90;;;;;;6057899;23;20054;-72
2022/10/05 10:06:09;;;;;;;3.58;3.05;;;18.50;99.90;;;;;;6059228;23;20035;-72
2022/10/05 10:08:41;;;;;;;5.97;3.50;;;18.50;99.90;;;;;;6060691;23;20007;-71
2022/10/05 10:11:37;;;;;;;4.25;3.35;;;18.40;99.90;;;;;;6061009;23;20003;-72
2022/10/05 10:14:11;;;;;;;4.68;2.92;;;18.40;99.90;;;;;;6061356;23;20027;-73
2022/10/05 10:16:49;;;;;;;6.65;3.70;;;18.60;99.90;;;;;;6174972;23;20005;-72
2022/10/05 10:19:38;;;;;;;5.95;3.05;;;18.70;99.90;;;;;;6181672;23;19997;-73
2022/10/05 10:22:29;;;;;;;3.92;3.10;;;18.80;99.90;;;;;;6181531;23;20001;-72
2022/10/05 10:25:19;;;;;;;4.43;3.35;;;18.80;99.90;;;;;;6175125;23;20427;-72
2022/10/05 10:27:59;;;;;;;5.40;2.85;;;19.00;99.90;;;;;;6181232;23;20005;-72
2022/10/05 10:30:50;;;;;;;3.30;3.00;;;19.00;99.90;;;;;;6181314;23;20012;-71
2022/10/05 10:33:22;;;;;;;3.40;3.10;;;19.10;99.90;;;;;;6181047;23;20009;-71
2022/10/05 10:36:12;;;;;;;4.45;3.53;;;19.10;99.90;;;;;;6181784;23;20009;-72
2022/10/05 10:39:04;;;;;;;6.40;3.67;;;19.10;99.90;;;;;;6179713;23;20007;-73
2022/10/05 10:42:08;;;;;;;5.30;3.20;;;19.10;99.90;;;;;;6181853;23;20025;-72
2022/10/05 10:44:58;;;;;;;6.30;3.65;;;19.10;99.90;;;;;;6181731;23;20001;-71
2022/10/05 10:47:50;;;;;;;4.95;2.95;;;19.20;99.90;;;;;;6180427;23;20063;-73
2022/10/05 10:50:34;;;;;;;4.03;2.47;;;19.20;99.90;;;;;;6176359;23;20005;-71
2022/10/05 10:53:24;;;;;;;4.40;3.17;;;19.30;99.90;;;;;;6182847;23;19997;-72
2022/10/05 10:56:11;;;;;;;5.05;3.35;;;19.10;99.90;;;;;;6183571;23;20012;-72
2022/10/05 10:59:02;;;;;;;4.80;2.35;;;19.30;99.90;;;;;;6183422;23;20008;-72
2022/10/05 11:01:53;;;;;;;4.65;2.60;;;19.20;99.90;;;;;;6183282;23;20008;-72
2022/10/05 11:04:40;;;;;;;3.72;2.63;;;19.20;99.90;;;;;;6183675;23;20076;-73
2022/10/05 11:07:15;;;;;;;3.35;2.72;;;19.30;99.90;;;;;;6183074;23;20378;-72
2022/10/05 11:10:02;;;;;;;5.15;2.63;;;19.30;99.90;;;;;;6183647;23;20001;-72
2022/10/05 11:13:04;;;;;;;2.45;2.08;;;19.30;99.90;;;;;;6183464;23;20020;-73
2022/10/05 11:16:06;;;;;;;5.32;2.30;;;19.40;99.90;;;;;;6183545;23;20052;-74
2022/10/05 11:18:43;;;;;;;5.40;2.33;;;19.40;99.90;;;;;;6183316;23;20001;-73
2022/10/05 11:21:24;;;;;;;4.28;2.55;;;19.40;99.90;;;;;;6183799;23;20678;-73
2022/10/05 11:24:14;;;;;;;3.60;2.47;;;19.50;99.90;;;;;;6183473;23;20001;-73
2022/10/05 11:27:10;;;;;;;4.82;2.50;;;19.50;99.90;;;;;;6183355;23;20502;-73
2022/10/05 11:30:18;;;;;;;5.20;2.13;;;19.50;99.90;;;;;;6183579;23;20005;-72
2022/10/05 11:33:09;;;;;;;4.43;2.75;;;19.50;99.90;;;;;;6062196;23;20353;-72
2022/10/05 11:36:03;;;;;;;5.07;2.60;;;19.60;99.90;;;;;;6063235;23;20011;-73
2022/10/05 11:38:56;;;;;;;4.20;2.30;;;19.60;99.90;;;;;;6063479;23;20091;-73
2022/10/05 11:41:24;;;;;;;4.50;2.47;;;19.60;99.90;;;;;;6062423;23;20011;-73
2022/10/05 11:44:04;;;;;;;3.17;2.30;;;19.60;99.90;;;;;;6062818;23;20014;-73
2022/10/05 11:46:40;;;;;;;3.13;2.30;;;19.60;99.90;;;;;;6062730;23;20010;-73
2022/10/05 11:49:33;;;;;;;3.10;2.35;;;19.80;99.90;;;;;;6062658;23;20329;-73
2022/10/05 11:52:05;;;;;;;2.67;2.30;;;19.70;99.90;;;;;;6059755;23;20038;-72
2022/10/05 11:54:54;;;;;;;2.85;2.00;;;19.60;99.90;;;;;;6061726;23;20014;-71
2022/10/05 11:57:22;;;;;;;3.20;2.05;;;19.90;99.90;;;;;;6062452;23;20011;-72
2022/10/05 12:00:05;;;;;;;4.45;2.20;;;19.70;99.80;;;;;;6060445;23;20010;-71
2022/10/05 12:02:49;;;;;;;1.92;1.70;;;19.80;99.90;;;;;;6062482;23;20014;-73
2022/10/05 12:05:34;;;;;;;;;;;20.10;99.80;;;;;;6061991;23;20349;-72
2022/10/05 12:08:05;;;;;;;2.90;1.90;;;19.90;99.90;;;;;;6062290;23;19901;-73
2022/10/05 12:10:39;;;;;;;3.72;1.90;;;19.80;99.90;;;;;;6175712;23;20339;-73
2022/10/05 12:13:24;;;;;;;7.38;2.72;;;19.80;99.90;;;;;;6182592;23;20367;-73
2022/10/05 12:16:01;;;;;;;6.05;2.58;;;19.80;99.90;;;;;;6181900;23;20032;-72
2022/10/05 12:18:37;;;;;;;3.28;2.30;;;20.00;99.90;;;;;;6182439;23;20004;-71
2022/10/05 12:21:10;;;;;;;6.47;1.90;;;20.00;99.40;;;;;;6181845;23;19997;-72
2022/10/05 12:23:43;;;;;;;2.78;1.70;;;20.00;99.90;;;;;;6183141;23;20005;-72
2022/10/05 12:26:19;;;;;;;4.75;1.77;;;20.00;99.50;;;;;;6182854;23;20283;-72
2022/10/05 12:28:54;;;;;;;4.35;2.17;;;20.10;99.80;;;;;;6182036;23;20009;-72
2022/10/05 12:31:43;;;;;;;3.60;2.00;;;20.10;99.90;;;;;;6182248;23;20001;-72
2022/10/05 12:34:37;;;;;;;2.47;2.20;;;20.10;99.60;;;;;;6181467;23;20024;-72
2022/10/05 12:37:36;;;;;;;5.35;2.65;;;20.60;99.90;;;;;;6182369;23;20005;-73
2022/10/05 12:40:12;;;;;;;3.83;1.92;;;20.20;99.80;;;;;;6182500;23;19994;-72
2022/10/05 12:43:25;;;;;;;3.95;1.65;;;20.20;99.90;;;;;;6182526;23;19997;-72
2022/10/05 12:45:54;;;;;;;3.90;1.90;;;20.40;99.40;;;;;;6156974;23;20005;-72
2022/10/05 12:48:51;;;;;;;2.65;1.52;;;20.40;99.90;;;;;;6181968;23;20076;-72
2022/10/05 12:51:37;;;;;;;3.08;1.50;;;20.50;99.30;;;;;;6182809;23;20005;-73
2022/10/05 12:54:33;;;;;;;4.05;1.65;;;20.50;99.90;;;;;;6182362;23;20072;-73
2022/10/05 12:57:24;;;;;;;5.13;1.85;;;20.50;98.90;;;;;;6182537;23;20001;-73
2022/10/05 13:00:01;;;;;;;6.38;2.17;;;20.60;99.00;;;;;;6062530;23;20014;-73
2022/10/05 13:02:44;;;;;;;4.97;1.88;;;20.60;99.00;;;;;;6062206;23;20421;-73
2022/10/05 13:05:10;;;;;;;3.65;1.63;;;20.70;99.10;;;;;;6062015;23;20069;-73
2022/10/05 13:07:50;;;;;;;2.38;1.48;;;20.70;99.30;;;;;;6062427;23;20006;-73
2022/10/05 13:10:26;;;;;;;3.50;1.80;;;20.70;99.10;;;;;;6061611;23;20007;-74
2022/10/05 13:13:13;;;;;;;2.13;1.67;;;20.70;99.00;;;;;;6061624;23;20437;-73
2022/10/05 13:16:16;;;;;;;4.45;1.85;;;20.70;98.90;;;;;;6061923;23;20017;-73
2022/10/05 13:19:07;;;;;;;5.28;1.40;;;20.70;98.90;;;;;;6037836;23;20027;-73
2022/10/05 13:21:46;;;;;;;4.93;1.70;;;20.70;99.70;;;;;;6038570;23;20011;-73
2022/10/05 13:24:26;;;;;;;2.83;1.67;;;20.80;99.70;;;;;;6061767;23;20139;-73
2022/10/05 13:27:11;;;;;;;3.00;1.88;;;20.80;98.90;;;;;;6062547;23;20513;-73
2022/10/05 13:29:39;;;;;;;2.35;1.45;;;20.80;99.00;;;;;;6062342;23;20444;-71
2022/10/05 13:32:19;;;;;;;3.53;1.85;;;20.70;99.20;;;;;;6061733;23;20013;-71
2022/10/05 13:35:04;;;;;;;2.33;1.60;;;20.80;98.80;;;;;;6062184;23;20014;-71
2022/10/05 13:37:56;;;;;;;4.25;1.83;;;21.10;99.90;;;;;;6155057;23;20096;-72
2022/10/05 13:40:52;;;;;;;2.17;1.33;;;20.70;99.10;;;;;;6180696;23;20023;-73
2022/10/05 13:43:42;;;;;;;2.28;1.88;;;20.80;99.20;;;;;;6181699;23;20025;-72
2022/10/05 13:46:23;;;;;;;1.65;1.42;;;20.70;99.90;;;;;;6182361;23;20332;-72
2022/10/05 13:49:22;;;;;;;3.95;1.77;;;20.80;99.20;;;;;;6181648;23;20028;-72
2022/10/05 13:51:53;;;;;;;2.63;1.30;;;20.80;99.10;;;;;;6180184;23;20036;-72
2022/10/05 13:54:46;;;;;;;3.33;1.50;;;20.80;98.90;;;;;;6180105;23;20008;-72
2022/10/05 13:57:30;;;;;;;2.63;1.30;;;20.90;99.00;;;;;;6181973;23;20155;-72
2022/10/05 14:00:11;;;;;;;2.17;1.42;;;20.90;99.80;;;;;;6181915;23;20023;-73
2022/10/05 14:02:40;;;;;;;2.38;1.58;;;20.80;99.40;;;;;;6181277;23;19997;-72
2022/10/05 14:05:25;;;;;;;2.80;1.25;;;20.90;99.20;;;;;;6182371;23;20040;-73
2022/10/05 14:07:57;;;;;;;2.00;1.27;;;20.90;98.90;;;;;;6182157;23;20002;-72